sensor_id;sensor_type;location;lat;lon;timestamp;temperature;humidity
59556;DHT22;45374;52.746;6.304;2023-04-22T00:00:23;9.60;99.90
59556;DHT22;45374;52.746;6.304;2023-04-22T00:02:48;9.50;99.90
59556;DHT22;45374;52.746;6.304;2023-04-22T00:05:14;9.40;99.90
59556;DHT22;45374;52.746;6.304;2023-04-22T00:07:40;9.40;99.90
59556;DHT22;45374;52.746;6.304;2023-04-22T00:10:08;9.30;99.90
59556;DHT22;45374;52.746;6.304;2023-04-22T00:12:34;9.20;99.90
59556;DHT22;45374;52.746;6.304;2023-04-22T00:14:59;9.10;99.90
59556;DHT22;45374;52.746;6.304;2023-04-22T00:17:25;9.00;99.90
59556;DHT22;45374;52.746;6.304;2023-04-22T00:19:51;9.00;99.90
59556;DHT22;45374;52.746;6.304;2023-04-22T00:22:17;9.00;99.90
59556;DHT22;45374;52.746;6.304;2023-04-22T00:24:42;9.00;99.90
59556;DHT22;45374;52.746;6.304;2023-04-22T00:27:08;9.00;99.90
59556;DHT22;45374;52.746;6.304;2023-04-22T00:29:34;9.10;99.90
59556;DHT22;45374;52.746;6.304;2023-04-22T00:31:59;9.10;99.90
59556;DHT22;45374;52.746;6.304;2023-04-22T00:34:25;9.00;99.90
59556;DHT22;45374;52.746;6.304;2023-04-22T00:36:51;8.90;99.90
59556;DHT22;45374;52.746;6.304;2023-04-22T00:39:16;8.80;99.90
59556;DHT22;45374;52.746;6.304;2023-04-22T00:41:42;8.80;99.90
59556;DHT22;45374;52.746;6.304;2023-04-22T00:44:09;8.70;99.90
59556;DHT22;45374;52.746;6.304;2023-04-22T00:46:38;8.70;99.90
59556;DHT22;45374;52.746;6.304;2023-04-22T00:49:05;8.80;99.90
59556;DHT22;45374;52.746;6.304;2023-04-22T00:51:31;8.70;99.90
59556;DHT22;45374;52.746;6.304;2023-04-22T00:53:57;8.70;99.90
59556;DHT22;45374;52.746;6.304;2023-04-22T00:56:25;8.70;99.90
59556;DHT22;45374;52.746;6.304;2023-04-22T00:58:53;8.70;99.90
59556;DHT22;45374;52.746;6.304;2023-04-22T01:01:18;8.70;99.90
59556;DHT22;45374;52.746;6.304;2023-04-22T01:03:45;8.60;99.90
59556;DHT22;45374;52.746;6.304;2023-04-22T01:06:12;8.50;99.90
59556;DHT22;45374;52.746;6.304;2023-04-22T01:08:38;8.50;99.90
59556;DHT22;45374;52.746;6.304;2023-04-22T01:11:05;8.30;99.90
59556;DHT22;45374;52.746;6.304;2023-04-22T01:13:30;8.30;99.90
59556;DHT22;45374;52.746;6.304;2023-04-22T01:15:57;8.30;99.90
59556;DHT22;45374;52.746;6.304;2023-04-22T01:18:25;8.30;99.90
59556;DHT22;45374;52.746;6.304;2023-04-22T01:20:51;8.30;99.90
59556;DHT22;45374;52.746;6.304;2023-04-22T01:23:21;8.30;99.90
59556;DHT22;45374;52.746;6.304;2023-04-22T01:25:47;8.20;99.90
59556;DHT22;45374;52.746;6.304;2023-04-22T01:28:13;8.20;99.90
59556;DHT22;45374;52.746;6.304;2023-04-22T01:30:39;8.20;99.90
59556;DHT22;45374;52.746;6.304;2023-04-22T01:33:05;8.20;99.90
59556;DHT22;45374;52.746;6.304;2023-04-22T01:35:31;8.20;99.90
59556;DHT22;45374;52.746;6.304;2023-04-22T01:38:02;8.20;99.90
59556;DHT22;45374;52.746;6.304;2023-04-22T01:40:32;8.00;99.90
59556;DHT22;45374;52.746;6.304;2023-04-22T01:42:58;8.00;99.90
59556;DHT22;45374;52.746;6.304;2023-04-22T01:45:25;8.00;99.90
59556;DHT22;45374;52.746;6.304;2023-04-22T01:47:51;8.00;99.90
59556;DHT22;45374;52.746;6.304;2023-04-22T01:50:16;7.90;99.90
59556;DHT22;45374;52.746;6.304;2023-04-22T01:52:42;7.80;99.90
59556;DHT22;45374;52.746;6.304;2023-04-22T01:55:08;7.90;99.90
59556;DHT22;45374;52.746;6.304;2023-04-22T01:57:33;7.90;99.90
59556;DHT22;45374;52.746;6.304;2023-04-22T01:59:59;7.90;99.90
59556;DHT22;45374;52.746;6.304;2023-04-22T02:02:25;8.00;99.90
59556;DHT22;45374;52.746;6.304;2023-04-22T02:04:51;7.80;99.90
59556;DHT22;45374;52.746;6.304;2023-04-22T02:07:16;7.90;99.90
59556;DHT22;45374;52.746;6.304;2023-04-22T02:09:42;7.80;99.90
59556;DHT22;45374;52.746;6.304;2023-04-22T02:12:07;7.80;99.90
59556;DHT22;45374;52.746;6.304;2023-04-22T02:14:33;7.80;99.90
59556;DHT22;45374;52.746;6.304;2023-04-22T02:16:59;7.80;99.90
59556;DHT22;45374;52.746;6.304;2023-04-22T02:19:27;7.80;99.90
59556;DHT22;45374;52.746;6.304;2023-04-22T02:21:52;7.90;99.90
59556;DHT22;45374;52.746;6.304;2023-04-22T02:24:18;7.80;99.90
59556;DHT22;45374;52.746;6.304;2023-04-22T02:26:44;7.80;99.90
59556;DHT22;45374;52.746;6.304;2023-04-22T02:29:10;7.80;99.90
59556;DHT22;45374;52.746;6.304;2023-04-22T02:31:36;7.70;99.90
59556;DHT22;45374;52.746;6.304;2023-04-22T02:34:01;7.70;99.90
59556;DHT22;45374;52.746;6.304;2023-04-22T02:36:27;7.70;99.90
59556;DHT22;45374;52.746;6.304;2023-04-22T02:38:53;7.70;99.90
59556;DHT22;45374;52.746;6.304;2023-04-22T02:41:19;7.60;99.90
59556;DHT22;45374;52.746;6.304;2023-04-22T02:43:44;7.60;99.90
59556;DHT22;45374;52.746;6.304;2023-04-22T02:46:12;7.60;99.90
59556;DHT22;45374;52.746;6.304;2023-04-22T02:48:38;7.60;99.90
59556;DHT22;45374;52.746;6.304;2023-04-22T02:51:04;7.50;99.90
59556;DHT22;45374;52.746;6.304;2023-04-22T02:53:30;7.50;99.90
59556;DHT22;45374;52.746;6.304;2023-04-22T02:55:56;7.50;99.90
59556;DHT22;45374;52.746;6.304;2023-04-22T02:58:22;7.50;99.90
59556;DHT22;45374;52.746;6.304;2023-04-22T03:00:48;7.40;99.90
59556;DHT22;45374;52.746;6.304;2023-04-22T03:03:14;7.40;99.90
59556;DHT22;45374;52.746;6.304;2023-04-22T03:05:39;7.40;99.90
59556;DHT22;45374;52.746;6.304;2023-04-22T03:08:05;7.40;99.90
59556;DHT22;45374;52.746;6.304;2023-04-22T03:10:30;7.40;99.90
59556;DHT22;45374;52.746;6.304;2023-04-22T03:12:57;7.40;99.90
59556;DHT22;45374;52.746;6.304;2023-04-22T03:15:22;7.40;99.90
59556;DHT22;45374;52.746;6.304;2023-04-22T03:17:48;7.40;99.90
59556;DHT22;45374;52.746;6.304;2023-04-22T03:20:14;7.30;99.90
59556;DHT22;45374;52.746;6.304;2023-04-22T03:22:39;7.30;99.90
59556;DHT22;45374;52.746;6.304;2023-04-22T03:25:05;7.20;99.90
59556;DHT22;45374;52.746;6.304;2023-04-22T03:27:31;7.20;99.90
59556;DHT22;45374;52.746;6.304;2023-04-22T03:29:57;7.20;99.90
59556;DHT22;45374;52.746;6.304;2023-04-22T03:32:22;7.20;99.90
59556;DHT22;45374;52.746;6.304;2023-04-22T03:34:48;7.20;99.90
59556;DHT22;45374;52.746;6.304;2023-04-22T03:37:14;7.20;99.90
59556;DHT22;45374;52.746;6.304;2023-04-22T03:39:40;7.20;99.90
59556;DHT22;45374;52.746;6.304;2023-04-22T03:42:05;7.20;99.90
59556;DHT22;45374;52.746;6.304;2023-04-22T03:44:31;7.00;99.90
59556;DHT22;45374;52.746;6.304;2023-04-22T03:46:56;7.10;99.90
59556;DHT22;45374;52.746;6.304;2023-04-22T03:49:22;7.00;99.90
59556;DHT22;45374;52.746;6.304;2023-04-22T03:51:47;6.90;99.90
59556;DHT22;45374;52.746;6.304;2023-04-22T03:54:13;6.80;99.90
59556;DHT22;45374;52.746;6.304;2023-04-22T03:56:38;6.70;99.90
59556;DHT22;45374;52.746;6.304;2023-04-22T03:59:04;6.70;99.90
59556;DHT22;45374;52.746;6.304;2023-04-22T04:01:29;6.90;99.90
59556;DHT22;45374;52.746;6.304;2023-04-22T04:03:55;6.90;99.90
59556;DHT22;45374;52.746;6.304;2023-04-22T04:06:20;6.80;99.90
59556;DHT22;45374;52.746;6.304;2023-04-22T04:08:46;6.70;99.90
59556;DHT22;45374;52.746;6.304;2023-04-22T04:11:12;6.40;99.90
59556;DHT22;45374;52.746;6.304;2023-04-22T04:13:37;5.90;99.90
59556;DHT22;45374;52.746;6.304;2023-04-22T04:16:03;5.60;99.90
59556;DHT22;45374;52.746;6.304;2023-04-22T04:18:28;5.50;99.90
59556;DHT22;45374;52.746;6.304;2023-04-22T04:20:54;5.60;99.90
59556;DHT22;45374;52.746;6.304;2023-04-22T04:23:20;5.60;99.90
59556;DHT22;45374;52.746;6.304;2023-04-22T04:25:46;5.60;99.90
59556;DHT22;45374;52.746;6.304;2023-04-22T04:28:12;5.70;99.90
59556;DHT22;45374;52.746;6.304;2023-04-22T04:30:38;5.80;99.90
59556;DHT22;45374;52.746;6.304;2023-04-22T04:33:06;5.80;99.90
59556;DHT22;45374;52.746;6.304;2023-04-22T04:35:35;5.80;99.90
59556;DHT22;45374;52.746;6.304;2023-04-22T04:38:03;5.90;99.90
59556;DHT22;45374;52.746;6.304;2023-04-22T04:40:29;5.90;99.90
59556;DHT22;45374;52.746;6.304;2023-04-22T04:42:55;5.80;99.90
59556;DHT22;45374;52.746;6.304;2023-04-22T04:45:27;5.80;99.90
59556;DHT22;45374;52.746;6.304;2023-04-22T04:47:53;5.80;99.90
59556;DHT22;45374;52.746;6.304;2023-04-22T04:50:19;5.80;99.90
59556;DHT22;45374;52.746;6.304;2023-04-22T04:52:46;5.80;99.90
59556;DHT22;45374;52.746;6.304;2023-04-22T04:55:13;5.80;99.90
59556;DHT22;45374;52.746;6.304;2023-04-22T04:57:39;5.80;99.90
59556;DHT22;45374;52.746;6.304;2023-04-22T05:00:06;5.80;99.90
59556;DHT22;45374;52.746;6.304;2023-04-22T05:02:32;5.80;99.90
59556;DHT22;45374;52.746;6.304;2023-04-22T05:04:58;5.90;99.90
59556;DHT22;45374;52.746;6.304;2023-04-22T05:07:23;5.80;99.90
59556;DHT22;45374;52.746;6.304;2023-04-22T05:09:49;5.90;99.90
59556;DHT22;45374;52.746;6.304;2023-04-22T05:12:14;5.90;99.90
59556;DHT22;45374;52.746;6.304;2023-04-22T05:14:40;6.00;99.90
59556;DHT22;45374;52.746;6.304;2023-04-22T05:17:06;6.00;99.90
59556;DHT22;45374;52.746;6.304;2023-04-22T05:19:32;6.20;99.90
59556;DHT22;45374;52.746;6.304;2023-04-22T05:21:58;6.30;99.90
59556;DHT22;45374;52.746;6.304;2023-04-22T05:24:24;6.30;99.90
59556;DHT22;45374;52.746;6.304;2023-04-22T05:26:49;6.50;99.90
59556;DHT22;45374;52.746;6.304;2023-04-22T05:29:15;6.50;99.90
59556;DHT22;45374;52.746;6.304;2023-04-22T05:31:40;6.70;99.90
59556;DHT22;45374;52.746;6.304;2023-04-22T05:34:06;6.80;99.90
59556;DHT22;45374;52.746;6.304;2023-04-22T05:36:31;6.90;99.90
59556;DHT22;45374;52.746;6.304;2023-04-22T05:38:57;7.00;99.90
59556;DHT22;45374;52.746;6.304;2023-04-22T05:41:22;7.00;99.90
59556;DHT22;45374;52.746;6.304;2023-04-22T05:43:48;7.10;99.90
59556;DHT22;45374;52.746;6.304;2023-04-22T05:46:14;7.30;99.90
59556;DHT22;45374;52.746;6.304;2023-04-22T05:48:39;7.40;99.90
59556;DHT22;45374;52.746;6.304;2023-04-22T05:51:05;7.50;99.90
59556;DHT22;45374;52.746;6.304;2023-04-22T05:53:30;7.70;99.90
59556;DHT22;45374;52.746;6.304;2023-04-22T05:55:56;7.70;99.90
59556;DHT22;45374;52.746;6.304;2023-04-22T05:58:21;7.80;99.90
59556;DHT22;45374;52.746;6.304;2023-04-22T06:00:47;8.00;99.90
59556;DHT22;45374;52.746;6.304;2023-04-22T06:03:12;8.10;99.90
59556;DHT22;45374;52.746;6.304;2023-04-22T06:05:38;8.10;99.90
59556;DHT22;45374;52.746;6.304;2023-04-22T06:08:04;8.30;99.90
59556;DHT22;45374;52.746;6.304;2023-04-22T06:10:29;8.30;99.90
59556;DHT22;45374;52.746;6.304;2023-04-22T06:12:55;8.50;99.90
59556;DHT22;45374;52.746;6.304;2023-04-22T06:15:20;8.70;99.90
59556;DHT22;45374;52.746;6.304;2023-04-22T06:17:47;8.80;99.90
59556;DHT22;45374;52.746;6.304;2023-04-22T06:20:13;8.90;99.90
59556;DHT22;45374;52.746;6.304;2023-04-22T06:22:39;9.00;99.90
59556;DHT22;45374;52.746;6.304;2023-04-22T06:25:05;9.20;99.90
59556;DHT22;45374;52.746;6.304;2023-04-22T06:27:30;9.20;99.90
59556;DHT22;45374;52.746;6.304;2023-04-22T06:29:56;9.30;99.90
59556;DHT22;45374;52.746;6.304;2023-04-22T06:32:21;9.50;99.90
59556;DHT22;45374;52.746;6.304;2023-04-22T06:34:47;9.60;99.90
59556;DHT22;45374;52.746;6.304;2023-04-22T06:37:12;9.70;99.90
59556;DHT22;45374;52.746;6.304;2023-04-22T06:39:38;9.70;99.90
59556;DHT22;45374;52.746;6.304;2023-04-22T06:42:03;10.00;99.90
59556;DHT22;45374;52.746;6.304;2023-04-22T06:44:29;10.00;99.90
59556;DHT22;45374;52.746;6.304;2023-04-22T06:46:56;10.10;99.90
59556;DHT22;45374;52.746;6.304;2023-04-22T06:49:22;10.10;99.90
59556;DHT22;45374;52.746;6.304;2023-04-22T06:51:47;10.20;99.90
59556;DHT22;45374;52.746;6.304;2023-04-22T06:54:13;10.40;99.90
59556;DHT22;45374;52.746;6.304;2023-04-22T06:56:38;10.40;99.90
59556;DHT22;45374;52.746;6.304;2023-04-22T06:59:04;10.60;99.90
59556;DHT22;45374;52.746;6.304;2023-04-22T07:01:32;10.60;99.90
59556;DHT22;45374;52.746;6.304;2023-04-22T07:03:57;10.70;99.90
59556;DHT22;45374;52.746;6.304;2023-04-22T07:06:23;10.80;99.90
59556;DHT22;45374;52.746;6.304;2023-04-22T07:08:48;10.80;99.90
59556;DHT22;45374;52.746;6.304;2023-04-22T07:11:14;11.00;99.90
59556;DHT22;45374;52.746;6.304;2023-04-22T07:13:40;11.10;99.90
59556;DHT22;45374;52.746;6.304;2023-04-22T07:16:05;11.10;99.90
59556;DHT22;45374;52.746;6.304;2023-04-22T07:18:31;11.10;99.90
59556;DHT22;45374;52.746;6.304;2023-04-22T07:20:56;11.20;99.90
59556;DHT22;45374;52.746;6.304;2023-04-22T07:23:22;11.30;99.90
59556;DHT22;45374;52.746;6.304;2023-04-22T07:25:48;11.50;99.90
59556;DHT22;45374;52.746;6.304;2023-04-22T07:28:13;11.50;99.90
59556;DHT22;45374;52.746;6.304;2023-04-22T07:30:39;11.60;99.90
59556;DHT22;45374;52.746;6.304;2023-04-22T07:33:04;11.70;99.90
59556;DHT22;45374;52.746;6.304;2023-04-22T07:35:30;11.80;99.90
59556;DHT22;45374;52.746;6.304;2023-04-22T07:37:56;11.80;99.90
59556;DHT22;45374;52.746;6.304;2023-04-22T07:40:21;12.00;99.90
59556;DHT22;45374;52.746;6.304;2023-04-22T07:42:47;12.10;99.90
59556;DHT22;45374;52.746;6.304;2023-04-22T07:45:12;12.20;99.90
59556;DHT22;45374;52.746;6.304;2023-04-22T07:47:38;12.40;99.90
59556;DHT22;45374;52.746;6.304;2023-04-22T07:50:04;12.50;99.90
59556;DHT22;45374;52.746;6.304;2023-04-22T07:52:30;12.70;99.90
59556;DHT22;45374;52.746;6.304;2023-04-22T07:54:56;12.90;99.90
59556;DHT22;45374;52.746;6.304;2023-04-22T07:57:21;13.00;99.90
59556;DHT22;45374;52.746;6.304;2023-04-22T07:59:48;13.10;99.90
59556;DHT22;45374;52.746;6.304;2023-04-22T08:02:13;13.20;99.90
59556;DHT22;45374;52.746;6.304;2023-04-22T08:04:39;13.20;99.90
59556;DHT22;45374;52.746;6.304;2023-04-22T08:07:05;13.40;99.90
59556;DHT22;45374;52.746;6.304;2023-04-22T08:09:30;13.50;99.90
59556;DHT22;45374;52.746;6.304;2023-04-22T08:11:56;13.60;99.90
59556;DHT22;45374;52.746;6.304;2023-04-22T08:14:22;13.80;99.90
59556;DHT22;45374;52.746;6.304;2023-04-22T08:16:50;13.80;99.90
59556;DHT22;45374;52.746;6.304;2023-04-22T08:19:16;13.90;99.90
59556;DHT22;45374;52.746;6.304;2023-04-22T08:21:41;14.00;99.90
59556;DHT22;45374;52.746;6.304;2023-04-22T08:24:07;14.10;99.90
59556;DHT22;45374;52.746;6.304;2023-04-22T08:26:32;14.20;99.90
59556;DHT22;45374;52.746;6.304;2023-04-22T08:28:59;14.30;99.90
59556;DHT22;45374;52.746;6.304;2023-04-22T08:31:24;14.40;99.90
59556;DHT22;45374;52.746;6.304;2023-04-22T08:33:50;14.50;99.90
59556;DHT22;45374;52.746;6.304;2023-04-22T08:36:16;14.60;99.90
59556;DHT22;45374;52.746;6.304;2023-04-22T08:38:41;14.70;99.90
59556;DHT22;45374;52.746;6.304;2023-04-22T08:41:07;14.90;99.90
59556;DHT22;45374;52.746;6.304;2023-04-22T08:43:34;15.10;99.90
59556;DHT22;45374;52.746;6.304;2023-04-22T08:46:00;15.20;99.90
59556;DHT22;45374;52.746;6.304;2023-04-22T08:48:26;15.40;99.90
59556;DHT22;45374;52.746;6.304;2023-04-22T08:50:52;15.50;99.90
59556;DHT22;45374;52.746;6.304;2023-04-22T08:53:19;15.60;99.90
59556;DHT22;45374;52.746;6.304;2023-04-22T08:55:45;15.60;99.90
59556;DHT22;45374;52.746;6.304;2023-04-22T08:58:11;15.50;99.90
59556;DHT22;45374;52.746;6.304;2023-04-22T09:00:38;15.50;99.90
59556;DHT22;45374;52.746;6.304;2023-04-22T09:03:06;15.50;99.90
59556;DHT22;45374;52.746;6.304;2023-04-22T09:05:32;15.60;99.90
59556;DHT22;45374;52.746;6.304;2023-04-22T09:07:58;15.70;99.90
59556;DHT22;45374;52.746;6.304;2023-04-22T09:10:24;15.80;99.90
59556;DHT22;45374;52.746;6.304;2023-04-22T09:12:50;16.00;99.90
59556;DHT22;45374;52.746;6.304;2023-04-22T09:15:16;16.10;99.90
59556;DHT22;45374;52.746;6.304;2023-04-22T09:17:42;16.20;99.90
59556;DHT22;45374;52.746;6.304;2023-04-22T09:20:08;16.30;99.90
59556;DHT22;45374;52.746;6.304;2023-04-22T09:22:42;16.30;99.90
59556;DHT22;45374;52.746;6.304;2023-04-22T09:25:23;16.30;99.90
59556;DHT22;45374;52.746;6.304;2023-04-22T09:27:56;16.30;99.90
59556;DHT22;45374;52.746;6.304;2023-04-22T09:30:31;16.40;99.90
59556;DHT22;45374;52.746;6.304;2023-04-22T09:32:58;16.50;99.90
59556;DHT22;45374;52.746;6.304;2023-04-22T09:35:32;16.70;99.90
59556;DHT22;45374;52.746;6.304;2023-04-22T09:38:01;16.90;99.90
59556;DHT22;45374;52.746;6.304;2023-04-22T09:40:28;17.10;99.90
59556;DHT22;45374;52.746;6.304;2023-04-22T09:42:56;17.20;99.90
59556;DHT22;45374;52.746;6.304;2023-04-22T09:48:11;17.20;99.90
59556;DHT22;45374;52.746;6.304;2023-04-22T09:50:38;17.30;99.90
59556;DHT22;45374;52.746;6.304;2023-04-22T09:53:06;17.40;99.90
59556;DHT22;45374;52.746;6.304;2023-04-22T09:55:35;17.60;99.90
59556;DHT22;45374;52.746;6.304;2023-04-22T09:58:07;17.70;99.90
59556;DHT22;45374;52.746;6.304;2023-04-22T10:00:35;17.80;99.90
59556;DHT22;45374;52.746;6.304;2023-04-22T10:03:03;17.70;99.90
59556;DHT22;45374;52.746;6.304;2023-04-22T10:05:29;17.90;99.90
59556;DHT22;45374;52.746;6.304;2023-04-22T10:07:55;17.90;99.90
59556;DHT22;45374;52.746;6.304;2023-04-22T10:10:20;17.90;99.90
59556;DHT22;45374;52.746;6.304;2023-04-22T10:12:46;18.00;99.90
59556;DHT22;45374;52.746;6.304;2023-04-22T10:15:13;18.20;99.90
59556;DHT22;45374;52.746;6.304;2023-04-22T10:17:39;18.30;99.90
59556;DHT22;45374;52.746;6.304;2023-04-22T10:20:12;18.50;99.90
59556;DHT22;45374;52.746;6.304;2023-04-22T10:22:41;18.60;99.90
59556;DHT22;45374;52.746;6.304;2023-04-22T10:25:23;18.60;99.90
59556;DHT22;45374;52.746;6.304;2023-04-22T10:28:09;18.60;99.90
59556;DHT22;45374;52.746;6.304;2023-04-22T10:30:37;18.60;99.90
59556;DHT22;45374;52.746;6.304;2023-04-22T10:38:40;18.90;99.90
59556;DHT22;45374;52.746;6.304;2023-04-22T10:41:12;19.00;99.90
59556;DHT22;45374;52.746;6.304;2023-04-22T10:46:06;19.20;99.90
59556;DHT22;45374;52.746;6.304;2023-04-22T10:48:49;19.30;99.90
59556;DHT22;45374;52.746;6.304;2023-04-22T10:54:03;19.30;99.90
59556;DHT22;45374;52.746;6.304;2023-04-22T10:56:28;19.40;99.90
59556;DHT22;45374;52.746;6.304;2023-04-22T10:58:57;19.40;99.90
59556;DHT22;45374;52.746;6.304;2023-04-22T11:01:26;19.40;99.90
59556;DHT22;45374;52.746;6.304;2023-04-22T11:03:52;19.40;99.90
59556;DHT22;45374;52.746;6.304;2023-04-22T11:06:19;19.40;99.90
59556;DHT22;45374;52.746;6.304;2023-04-22T11:09:07;19.60;99.90
59556;DHT22;45374;52.746;6.304;2023-04-22T11:11:33;19.70;99.90
59556;DHT22;45374;52.746;6.304;2023-04-22T11:13:59;19.70;99.90
59556;DHT22;45374;52.746;6.304;2023-04-22T11:16:24;19.80;99.90
59556;DHT22;45374;52.746;6.304;2023-04-22T11:18:51;19.90;99.90
59556;DHT22;45374;52.746;6.304;2023-04-22T11:21:17;19.90;99.90
59556;DHT22;45374;52.746;6.304;2023-04-22T11:23:50;19.90;99.90
59556;DHT22;45374;52.746;6.304;2023-04-22T11:26:18;19.90;99.90
59556;DHT22;45374;52.746;6.304;2023-04-22T11:28:47;19.90;99.90
59556;DHT22;45374;52.746;6.304;2023-04-22T11:31:13;20.00;99.90
59556;DHT22;45374;52.746;6.304;2023-04-22T11:33:40;20.00;99.90
59556;DHT22;45374;52.746;6.304;2023-04-22T11:36:09;20.10;99.90
59556;DHT22;45374;52.746;6.304;2023-04-22T11:38:36;20.10;99.90
59556;DHT22;45374;52.746;6.304;2023-04-22T11:41:01;20.00;99.90
59556;DHT22;45374;52.746;6.304;2023-04-22T11:43:29;20.00;99.90
59556;DHT22;45374;52.746;6.304;2023-04-22T11:45:55;19.90;99.90
59556;DHT22;45374;52.746;6.304;2023-04-22T11:48:21;19.90;99.90
59556;DHT22;45374;52.746;6.304;2023-04-22T11:50:47;19.90;99.90
59556;DHT22;45374;52.746;6.304;2023-04-22T11:53:20;19.80;99.90
59556;DHT22;45374;52.746;6.304;2023-04-22T11:55:49;19.80;99.90
59556;DHT22;45374;52.746;6.304;2023-04-22T11:58:17;19.90;99.90
59556;DHT22;45374;52.746;6.304;2023-04-22T12:00:45;20.00;99.90
59556;DHT22;45374;52.746;6.304;2023-04-22T12:03:16;20.20;99.90
59556;DHT22;45374;52.746;6.304;2023-04-22T12:08:13;20.50;99.90
59556;DHT22;45374;52.746;6.304;2023-04-22T12:10:41;20.80;99.90
59556;DHT22;45374;52.746;6.304;2023-04-22T12:13:07;21.10;99.90
59556;DHT22;45374;52.746;6.304;2023-04-22T12:15:37;21.40;99.90
59556;DHT22;45374;52.746;6.304;2023-04-22T12:18:03;21.50;99.90
59556;DHT22;45374;52.746;6.304;2023-04-22T12:20:32;21.30;99.90
59556;DHT22;45374;52.746;6.304;2023-04-22T12:22:58;21.40;99.90
59556;DHT22;45374;52.746;6.304;2023-04-22T12:25:24;21.30;99.90
59556;DHT22;45374;52.746;6.304;2023-04-22T12:27:49;21.20;99.90
59556;DHT22;45374;52.746;6.304;2023-04-22T12:30:15;21.10;99.90
59556;DHT22;45374;52.746;6.304;2023-04-22T12:32:41;21.00;99.90
59556;DHT22;45374;52.746;6.304;2023-04-22T12:35:07;21.00;99.90
59556;DHT22;45374;52.746;6.304;2023-04-22T12:37:33;21.10;99.90
59556;DHT22;45374;52.746;6.304;2023-04-22T12:39:58;21.30;99.90
59556;DHT22;45374;52.746;6.304;2023-04-22T12:42:24;21.40;99.90
59556;DHT22;45374;52.746;6.304;2023-04-22T12:44:50;21.40;99.90
59556;DHT22;45374;52.746;6.304;2023-04-22T12:47:15;21.30;99.90
59556;DHT22;45374;52.746;6.304;2023-04-22T12:49:42;21.10;99.90
59556;DHT22;45374;52.746;6.304;2023-04-22T12:52:09;20.90;99.90
59556;DHT22;45374;52.746;6.304;2023-04-22T12:54:34;20.80;99.90
59556;DHT22;45374;52.746;6.304;2023-04-22T12:57:00;20.80;99.90
59556;DHT22;45374;52.746;6.304;2023-04-22T12:59:26;20.90;99.90
59556;DHT22;45374;52.746;6.304;2023-04-22T13:01:52;20.90;99.90
59556;DHT22;45374;52.746;6.304;2023-04-22T13:04:19;21.00;99.90
59556;DHT22;45374;52.746;6.304;2023-04-22T13:06:45;21.00;99.90
59556;DHT22;45374;52.746;6.304;2023-04-22T13:09:11;21.00;99.90
59556;DHT22;45374;52.746;6.304;2023-04-22T13:11:37;20.90;99.90
59556;DHT22;45374;52.746;6.304;2023-04-22T13:14:03;20.80;99.90
59556;DHT22;45374;52.746;6.304;2023-04-22T13:16:28;20.60;99.90
59556;DHT22;45374;52.746;6.304;2023-04-22T13:18:54;20.30;99.90
59556;DHT22;45374;52.746;6.304;2023-04-22T13:21:19;19.90;99.90
59556;DHT22;45374;52.746;6.304;2023-04-22T13:23:45;19.70;99.90
59556;DHT22;45374;52.746;6.304;2023-04-22T13:26:11;19.30;99.90
59556;DHT22;45374;52.746;6.304;2023-04-22T13:28:36;19.10;99.90
59556;DHT22;45374;52.746;6.304;2023-04-22T13:31:02;18.80;99.90
59556;DHT22;45374;52.746;6.304;2023-04-22T13:33:27;18.60;99.90
59556;DHT22;45374;52.746;6.304;2023-04-22T13:35:53;18.40;99.90
59556;DHT22;45374;52.746;6.304;2023-04-22T13:38:18;18.30;99.90
59556;DHT22;45374;52.746;6.304;2023-04-22T13:40:44;18.20;99.90
59556;DHT22;45374;52.746;6.304;2023-04-22T13:43:10;18.00;99.90
59556;DHT22;45374;52.746;6.304;2023-04-22T13:45:36;17.90;99.90
59556;DHT22;45374;52.746;6.304;2023-04-22T13:48:02;17.80;99.90
59556;DHT22;45374;52.746;6.304;2023-04-22T13:50:28;17.60;99.90
59556;DHT22;45374;52.746;6.304;2023-04-22T13:52:53;17.50;99.90
59556;DHT22;45374;52.746;6.304;2023-04-22T13:55:19;17.50;99.90
59556;DHT22;45374;52.746;6.304;2023-04-22T13:57:45;17.30;99.90
59556;DHT22;45374;52.746;6.304;2023-04-22T14:00:11;17.20;99.90
59556;DHT22;45374;52.746;6.304;2023-04-22T14:02:36;17.10;99.90
59556;DHT22;45374;52.746;6.304;2023-04-22T14:05:02;17.10;99.90
59556;DHT22;45374;52.746;6.304;2023-04-22T14:07:28;17.00;99.90
59556;DHT22;45374;52.746;6.304;2023-04-22T14:09:53;16.90;99.90
59556;DHT22;45374;52.746;6.304;2023-04-22T14:12:19;16.90;99.90
59556;DHT22;45374;52.746;6.304;2023-04-22T14:14:45;16.90;99.90
59556;DHT22;45374;52.746;6.304;2023-04-22T14:17:10;16.80;99.90
59556;DHT22;45374;52.746;6.304;2023-04-22T14:19:36;16.70;99.90
59556;DHT22;45374;52.746;6.304;2023-04-22T14:22:03;16.60;99.90
59556;DHT22;45374;52.746;6.304;2023-04-22T14:24:29;16.50;99.90
59556;DHT22;45374;52.746;6.304;2023-04-22T14:26:58;16.40;99.90
59556;DHT22;45374;52.746;6.304;2023-04-22T14:29:24;16.20;99.90
59556;DHT22;45374;52.746;6.304;2023-04-22T14:31:49;16.00;99.90
59556;DHT22;45374;52.746;6.304;2023-04-22T14:34:15;15.90;99.90
59556;DHT22;45374;52.746;6.304;2023-04-22T14:36:41;15.80;99.90
59556;DHT22;45374;52.746;6.304;2023-04-22T14:39:06;15.50;99.90
59556;DHT22;45374;52.746;6.304;2023-04-22T14:41:32;15.30;99.90
59556;DHT22;45374;52.746;6.304;2023-04-22T14:43:58;15.00;99.90
59556;DHT22;45374;52.746;6.304;2023-04-22T14:46:23;14.90;99.90
59556;DHT22;45374;52.746;6.304;2023-04-22T14:48:49;14.70;99.90
59556;DHT22;45374;52.746;6.304;2023-04-22T14:51:14;14.60;99.90
59556;DHT22;45374;52.746;6.304;2023-04-22T14:53:40;14.40;99.90
59556;DHT22;45374;52.746;6.304;2023-04-22T14:56:06;14.30;99.90
59556;DHT22;45374;52.746;6.304;2023-04-22T14:58:32;14.30;99.90
59556;DHT22;45374;52.746;6.304;2023-04-22T15:00:58;14.10;99.90
59556;DHT22;45374;52.746;6.304;2023-04-22T15:03:24;14.10;99.90
59556;DHT22;45374;52.746;6.304;2023-04-22T15:05:49;14.00;99.90
59556;DHT22;45374;52.746;6.304;2023-04-22T15:08:17;13.70;99.90
59556;DHT22;45374;52.746;6.304;2023-04-22T15:10:42;13.60;99.90
59556;DHT22;45374;52.746;6.304;2023-04-22T15:13:08;13.40;99.90
59556;DHT22;45374;52.746;6.304;2023-04-22T15:15:34;13.20;99.90
59556;DHT22;45374;52.746;6.304;2023-04-22T15:17:59;13.20;99.90
59556;DHT22;45374;52.746;6.304;2023-04-22T15:20:25;13.10;99.90
59556;DHT22;45374;52.746;6.304;2023-04-22T15:22:51;12.90;99.90
59556;DHT22;45374;52.746;6.304;2023-04-22T15:25:16;13.10;99.90
59556;DHT22;45374;52.746;6.304;2023-04-22T15:27:42;12.90;99.90
59556;DHT22;45374;52.746;6.304;2023-04-22T15:30:08;13.00;99.90
59556;DHT22;45374;52.746;6.304;2023-04-22T15:32:35;12.90;99.90
59556;DHT22;45374;52.746;6.304;2023-04-22T15:35:04;13.00;99.90
59556;DHT22;45374;52.746;6.304;2023-04-22T15:37:30;12.80;99.90
59556;DHT22;45374;52.746;6.304;2023-04-22T15:39:56;12.90;99.90
59556;DHT22;45374;52.746;6.304;2023-04-22T15:42:21;12.70;99.90
59556;DHT22;45374;52.746;6.304;2023-04-22T15:44:47;12.70;99.90
59556;DHT22;45374;52.746;6.304;2023-04-22T15:47:12;12.60;99.90